sensor_id;sensor_type;location;lat;lon;timestamp;pressure;altitude;pressure_sealevel;temperature;humidity
62791;BME280;48830;53.426;10.300;2023-05-24T00:00:27;101920.88;;;10.73;100.00
62791;BME280;48830;53.426;10.300;2023-05-24T00:02:53;101921.78;;;10.75;100.00
62791;BME280;48830;53.426;10.300;2023-05-24T00:05:18;101921.78;;;10.75;100.00
62791;BME280;48830;53.426;10.300;2023-05-24T00:07:44;101919.28;;;10.76;100.00
62791;BME280;48830;53.426;10.300;2023-05-24T00:10:10;101924.28;;;10.72;100.00
62791;BME280;48830;53.426;10.300;2023-05-24T00:12:35;101927.72;;;10.72;100.00
62791;BME280;48830;53.426;10.300;2023-05-24T00:15:01;101928.63;;;10.74;100.00
62791;BME280;48830;53.426;10.300;2023-05-24T00:17:26;101921.78;;;10.75;100.00
62791;BME280;48830;53.426;10.300;2023-05-24T00:19:54;101918.16;;;10.68;100.00
62791;BME280;48830;53.426;10.300;2023-05-24T00:22:20;101923.19;;;10.65;100.00
62791;BME280;48830;53.426;10.300;2023-05-24T00:24:46;101918.13;;;10.67;100.00
62791;BME280;48830;53.426;10.300;2023-05-24T00:27:13;101911.28;;;10.67;100.00
62791;BME280;48830;53.426;10.300;2023-05-24T00:29:38;101911.97;;;10.63;100.00
62791;BME280;48830;53.426;10.300;2023-05-24T00:32:04;101906.00;;;10.64;100.00
62791;BME280;48830;53.426;10.300;2023-05-24T00:34:30;101900.88;;;10.64;100.00
62791;BME280;48830;53.426;10.300;2023-05-24T00:36:55;101895.84;;;10.67;100.00
62791;BME280;48830;53.426;10.300;2023-05-24T00:39:22;101895.84;;;10.67;100.00
62791;BME280;48830;53.426;10.300;2023-05-24T00:41:47;101899.28;;;10.68;100.00
62791;BME280;48830;53.426;10.300;2023-05-24T00:44:13;101892.44;;;10.68;100.00
62791;BME280;48830;53.426;10.300;2023-05-24T00:46:39;101888.97;;;10.66;100.00
62791;BME280;48830;53.426;10.300;2023-05-24T00:49:05;101889.88;;;10.68;100.00
62791;BME280;48830;53.426;10.300;2023-05-24T00:51:31;101891.53;;;10.66;100.00
62791;BME280;48830;53.426;10.300;2023-05-24T00:53:58;101899.25;;;10.66;100.00
62791;BME280;48830;53.426;10.300;2023-05-24T00:56:24;101899.31;;;10.69;100.00
62791;BME280;48830;53.426;10.300;2023-05-24T00:58:51;101895.16;;;10.73;100.00
62791;BME280;48830;53.426;10.300;2023-05-24T01:01:19;101895.84;;;10.67;100.00
62791;BME280;48830;53.426;10.300;2023-05-24T01:03:44;101887.19;;;10.65;100.00
62791;BME280;48830;53.426;10.300;2023-05-24T01:06:11;101885.63;;;10.70;100.00
62791;BME280;48830;53.426;10.300;2023-05-24T01:11:24;101894.28;;;10.72;100.00
62791;BME280;48830;53.426;10.300;2023-05-24T01:14:25;101891.88;;;10.77;100.00
62791;BME280;48830;53.426;10.300;2023-05-24T01:16:56;101893.63;;;10.78;100.00
62791;BME280;48830;53.426;10.300;2023-05-24T01:28:04;101892.16;;;10.86;100.00
62791;BME280;48830;53.426;10.300;2023-05-24T01:30:30;101882.72;;;10.87;100.00
62791;BME280;48830;53.426;10.300;2023-05-24T01:32:57;101892.22;;;10.88;100.00
62791;BME280;48830;53.426;10.300;2023-05-24T01:35:22;101892.25;;;10.89;100.00
62791;BME280;48830;53.426;10.300;2023-05-24T01:37:47;101887.84;;;10.85;100.00
62791;BME280;48830;53.426;10.300;2023-05-24T01:40:13;101881.94;;;10.88;100.00
62791;BME280;48830;53.426;10.300;2023-05-24T01:45:22;101886.13;;;10.86;100.00
62791;BME280;48830;53.426;10.300;2023-05-24T01:48:15;101882.72;;;10.87;100.00
62791;BME280;48830;53.426;10.300;2023-05-24T01:51:00;101879.28;;;10.86;100.00
62791;BME280;48830;53.426;10.300;2023-05-24T01:53:32;101879.16;;;10.82;100.00
62791;BME280;48830;53.426;10.300;2023-05-24T01:56:01;101876.47;;;10.78;100.00
62791;BME280;48830;53.426;10.300;2023-05-24T01:58:29;101883.53;;;10.84;100.00
62791;BME280;48830;53.426;10.300;2023-05-24T02:00:56;101872.50;;;10.88;100.00
62791;BME280;48830;53.426;10.300;2023-05-24T02:03:21;101870.69;;;10.86;100.00
62791;BME280;48830;53.426;10.300;2023-05-24T02:05:47;101869.06;;;10.88;100.00
62791;BME280;48830;53.426;10.300;2023-05-24T02:08:13;101859.72;;;10.91;100.00
62791;BME280;48830;53.426;10.300;2023-05-24T02:10:39;101862.25;;;10.90;100.00
62791;BME280;48830;53.426;10.300;2023-05-24T02:13:05;101865.75;;;10.92;100.00
62791;BME280;48830;53.426;10.300;2023-05-24T02:15:32;101866.56;;;10.91;100.00
62791;BME280;48830;53.426;10.300;2023-05-24T02:17:57;101872.66;;;10.93;100.00
62791;BME280;48830;53.426;10.300;2023-05-24T02:20:28;101869.25;;;10.94;100.00
62791;BME280;48830;53.426;10.300;2023-05-24T02:23:01;101873.56;;;10.95;100.00
62791;BME280;48830;53.426;10.300;2023-05-24T02:25:26;101877.00;;;10.95;100.00
62791;BME280;48830;53.426;10.300;2023-05-24T02:27:52;101870.34;;;11.02;100.00
62791;BME280;48830;53.426;10.300;2023-05-24T02:30:18;101868.53;;;10.98;100.00
62791;BME280;48830;53.426;10.300;2023-05-24T02:32:43;101868.53;;;10.98;100.00
62791;BME280;48830;53.426;10.300;2023-05-24T02:35:09;101871.75;;;10.92;100.00
62791;BME280;48830;53.426;10.300;2023-05-24T02:37:34;101864.94;;;10.93;100.00
62791;BME280;48830;53.426;10.300;2023-05-24T02:40:00;101864.09;;;10.94;100.00
62791;BME280;48830;53.426;10.300;2023-05-24T02:42:26;101863.28;;;10.95;100.00
62791;BME280;48830;53.426;10.300;2023-05-24T02:44:51;101870.13;;;10.94;100.00
62791;BME280;48830;53.426;10.300;2023-05-24T02:47:17;101866.56;;;10.91;100.00
62791;BME280;48830;53.426;10.300;2023-05-24T02:49:43;101865.75;;;10.92;100.00
62791;BME280;48830;53.426;10.300;2023-05-24T02:52:09;101865.66;;;10.89;100.00
62791;BME280;48830;53.426;10.300;2023-05-24T02:54:34;101865.66;;;10.89;100.00
62791;BME280;48830;53.426;10.300;2023-05-24T02:57:02;101866.53;;;10.89;100.00
62791;BME280;48830;53.426;10.300;2023-05-24T02:59:27;101867.41;;;10.90;100.00
62791;BME280;48830;53.426;10.300;2023-05-24T03:01:53;101864.94;;;10.93;100.00
62791;BME280;48830;53.426;10.300;2023-05-24T03:04:18;101859.91;;;10.97;100.00
62791;BME280;48830;53.426;10.300;2023-05-24T03:06:44;101864.28;;;11.00;100.00
62791;BME280;48830;53.426;10.300;2023-05-24T03:09:10;101860.81;;;10.98;100.00
62791;BME280;48830;53.426;10.300;2023-05-24T03:11:35;101863.41;;;10.99;100.00
62791;BME280;48830;53.426;10.300;2023-05-24T03:14:00;101856.53;;;10.98;100.00
62791;BME280;48830;53.426;10.300;2023-05-24T03:16:27;101864.19;;;10.97;100.00
62791;BME280;48830;53.426;10.300;2023-05-24T03:18:52;101853.81;;;10.94;100.00
62791;BME280;48830;53.426;10.300;2023-05-24T03:21:20;101857.34;;;10.97;100.00
62791;BME280;48830;53.426;10.300;2023-05-24T03:23:45;101857.41;;;10.99;100.00
62791;BME280;48830;53.426;10.300;2023-05-24T03:26:11;101862.63;;;11.02;100.00
62791;BME280;48830;53.426;10.300;2023-05-24T03:28:39;101864.28;;;11.00;100.00
62791;BME280;48830;53.426;10.300;2023-05-24T03:31:05;101857.34;;;10.97;100.00
62791;BME280;48830;53.426;10.300;2023-05-24T03:33:31;101856.56;;;11.00;100.00
62791;BME280;48830;53.426;10.300;2023-05-24T03:35:57;101857.47;;;11.02;100.00
62791;BME280;48830;53.426;10.300;2023-05-24T03:38:22;101858.25;;;10.98;100.00
62791;BME280;48830;53.426;10.300;2023-05-24T03:40:48;101852.44;;;11.05;100.00
62791;BME280;48830;53.426;10.300;2023-05-24T03:43:17;101855.84;;;11.04;100.00
62791;BME280;48830;53.426;10.300;2023-05-24T03:45:53;101851.56;;;11.04;100.00
62791;BME280;48830;53.426;10.300;2023-05-24T03:48:19;101860.16;;;11.05;100.00
62791;BME280;48830;53.426;10.300;2023-05-24T03:50:49;101856.75;;;11.06;100.00
62791;BME280;48830;53.426;10.300;2023-05-24T03:53:16;101864.59;;;11.09;100.00
62791;BME280;48830;53.426;10.300;2023-05-24T03:55:41;101868.84;;;11.09;100.00
62791;BME280;48830;53.426;10.300;2023-05-24T03:58:07;101862.91;;;11.11;100.00
62791;BME280;48830;53.426;10.300;2023-05-24T04:00:32;101870.53;;;11.08;100.00
62791;BME280;48830;53.426;10.300;2023-05-24T04:02:58;101880.91;;;11.10;100.00
62791;BME280;48830;53.426;10.300;2023-05-24T04:05:26;101881.13;;;11.17;100.00
62791;BME280;48830;53.426;10.300;2023-05-24T04:07:54;101876.66;;;11.12;100.00
62791;BME280;48830;53.426;10.300;2023-05-24T04:10:20;101881.84;;;11.13;100.00
62791;BME280;48830;53.426;10.300;2023-05-24T04:12:47;101882.78;;;11.15;100.00
62791;BME280;48830;53.426;10.300;2023-05-24T04:15:12;101878.53;;;11.17;100.00
62791;BME280;48830;53.426;10.300;2023-05-24T04:17:43;101886.25;;;11.17;100.00
62791;BME280;48830;53.426;10.300;2023-05-24T04:20:10;101886.25;;;11.17;100.00
62791;BME280;48830;53.426;10.300;2023-05-24T04:22:37;101883.63;;;11.14;100.00
62791;BME280;48830;53.426;10.300;2023-05-24T04:25:03;101890.50;;;11.15;100.00
62791;BME280;48830;53.426;10.300;2023-05-24T04:27:30;101887.22;;;11.21;100.00
62791;BME280;48830;53.426;10.300;2023-05-24T04:29:56;101885.53;;;11.21;100.00
62791;BME280;48830;53.426;10.300;2023-05-24T04:32:22;101889.78;;;11.19;100.00
62791;BME280;48830;53.426;10.300;2023-05-24T04:34:48;101892.34;;;11.19;100.00
62791;BME280;48830;53.426;10.300;2023-05-24T04:37:14;101894.09;;;11.20;100.00
62791;BME280;48830;53.426;10.300;2023-05-24T04:39:43;101905.00;;;11.13;100.00
62791;BME280;48830;53.426;10.300;2023-05-24T04:42:11;101900.78;;;11.15;100.00
62791;BME280;48830;53.426;10.300;2023-05-24T04:44:36;101904.19;;;11.14;100.00
62791;BME280;48830;53.426;10.300;2023-05-24T04:47:02;101912.00;;;11.17;100.00
62791;BME280;48830;53.426;10.300;2023-05-24T04:49:28;101914.56;;;11.17;100.00
62791;BME280;48830;53.426;10.300;2023-05-24T04:51:55;101914.69;;;11.20;100.00
62791;BME280;48830;53.426;10.300;2023-05-24T04:54:20;101916.41;;;11.21;100.00
62791;BME280;48830;53.426;10.300;2023-05-24T04:56:47;101926.59;;;11.18;100.00
62791;BME280;48830;53.426;10.300;2023-05-24T04:59:12;101923.22;;;11.19;100.00
62791;BME280;48830;53.426;10.300;2023-05-24T05:01:38;101925.13;;;11.25;100.00
62791;BME280;48830;53.426;10.300;2023-05-24T05:04:03;101929.31;;;11.23;100.00
62791;BME280;48830;53.426;10.300;2023-05-24T05:06:29;101929.31;;;11.23;100.00
62791;BME280;48830;53.426;10.300;2023-05-24T05:08:55;101931.84;;;11.21;100.00
62791;BME280;48830;53.426;10.300;2023-05-24T05:11:21;101933.59;;;11.22;100.00
62791;BME280;48830;53.426;10.300;2023-05-24T05:13:46;101930.19;;;11.23;100.00
62791;BME280;48830;53.426;10.300;2023-05-24T05:16:12;101933.72;;;11.25;100.00
62791;BME280;48830;53.426;10.300;2023-05-24T05:18:38;101923.50;;;11.28;100.00
62791;BME280;48830;53.426;10.300;2023-05-24T05:21:03;101928.63;;;11.28;100.00
62791;BME280;48830;53.426;10.300;2023-05-24T05:23:29;101932.16;;;11.30;100.00
62791;BME280;48830;53.426;10.300;2023-05-24T05:25:55;101933.09;;;11.34;100.00
62791;BME280;48830;53.426;10.300;2023-05-24T05:28:21;101927.88;;;11.31;100.00
62791;BME280;48830;53.426;10.300;2023-05-24T05:30:46;101932.16;;;11.30;100.00
62791;BME280;48830;53.426;10.300;2023-05-24T05:33:12;101939.03;;;11.32;100.00
62791;BME280;48830;53.426;10.300;2023-05-24T05:35:37;101945.19;;;11.37;100.00
62791;BME280;48830;53.426;10.300;2023-05-24T05:38:03;101942.78;;;11.41;100.00
62791;BME280;48830;53.426;10.300;2023-05-24T05:40:28;101942.84;;;11.44;100.00
62791;BME280;48830;53.426;10.300;2023-05-24T05:42:54;101940.31;;;11.46;100.00
62791;BME280;48830;53.426;10.300;2023-05-24T05:45:19;101938.50;;;11.42;100.00
62791;BME280;48830;53.426;10.300;2023-05-24T05:47:45;101938.53;;;11.43;100.00
62791;BME280;48830;53.426;10.300;2023-05-24T05:50:10;101941.16;;;11.45;100.00
62791;BME280;48830;53.426;10.300;2023-05-24T05:52:36;101939.41;;;11.44;100.00
62791;BME280;48830;53.426;10.300;2023-05-24T05:55:01;101936.19;;;11.51;100.00
62791;BME280;48830;53.426;10.300;2023-05-24T05:57:27;101943.09;;;11.52;100.00
62791;BME280;48830;53.426;10.300;2023-05-24T05:59:52;101942.13;;;11.48;100.00
62791;BME280;48830;53.426;10.300;2023-05-24T06:02:18;101941.28;;;11.49;100.00
62791;BME280;48830;53.426;10.300;2023-05-24T06:04:44;101955.03;;;11.50;100.00
62791;BME280;48830;53.426;10.300;2023-05-24T06:07:10;101957.47;;;11.45;100.00
62791;BME280;48830;53.426;10.300;2023-05-24T06:09:35;101968.06;;;11.54;100.00
62791;BME280;48830;53.426;10.300;2023-05-24T06:12:01;101968.16;;;11.57;100.00
62791;BME280;48830;53.426;10.300;2023-05-24T06:14:26;101970.03;;;11.63;100.00
62791;BME280;48830;53.426;10.300;2023-05-24T06:16:51;101962.50;;;11.69;100.00
62791;BME280;48830;53.426;10.300;2023-05-24T06:19:18;101972.97;;;11.75;100.00
62791;BME280;48830;53.426;10.300;2023-05-24T06:21:46;101972.97;;;11.75;100.00
62791;BME280;48830;53.426;10.300;2023-05-24T06:24:13;101967.66;;;11.69;100.00
62791;BME280;48830;53.426;10.300;2023-05-24T06:26:40;101969.69;;;11.81;100.00
62791;BME280;48830;53.426;10.300;2023-05-24T06:29:06;101969.06;;;11.88;100.00
62791;BME280;48830;53.426;10.300;2023-05-24T06:31:32;101972.66;;;11.93;100.00
62791;BME280;48830;53.426;10.300;2023-05-24T06:33:58;101979.63;;;11.96;100.00
62791;BME280;48830;53.426;10.300;2023-05-24T06:36:24;101983.84;;;11.94;100.00
62791;BME280;48830;53.426;10.300;2023-05-24T06:38:50;101983.59;;;11.85;100.00
62791;BME280;48830;53.426;10.300;2023-05-24T06:41:15;101993.97;;;11.88;100.00
62791;BME280;48830;53.426;10.300;2023-05-24T06:43:41;101993.09;;;11.87;100.00
62791;BME280;48830;53.426;10.300;2023-05-24T06:46:06;101995.72;;;11.89;100.00
62791;BME280;48830;53.426;10.300;2023-05-24T06:48:32;101997.59;;;11.94;100.00
62791;BME280;48830;53.426;10.300;2023-05-24T06:50:58;102003.66;;;11.95;100.00
62791;BME280;48830;53.426;10.300;2023-05-24T06:53:23;102004.44;;;11.94;100.00
62791;BME280;48830;53.426;10.300;2023-05-24T06:55:48;102001.06;;;11.95;100.00
62791;BME280;48830;53.426;10.300;2023-05-24T06:58:14;102010.59;;;11.99;100.00
62791;BME280;48830;53.426;10.300;2023-05-24T07:00:41;102007.19;;;12.00;100.00
62791;BME280;48830;53.426;10.300;2023-05-24T07:03:07;102014.44;;;12.12;100.00
62791;BME280;48830;53.426;10.300;2023-05-24T07:05:33;102015.44;;;12.17;100.00
62791;BME280;48830;53.426;10.300;2023-05-24T07:07:59;102024.03;;;12.17;100.00
62791;BME280;48830;53.426;10.300;2023-05-24T07:10:25;102016.19;;;12.13;100.00
62791;BME280;48830;53.426;10.300;2023-05-24T07:12:50;102023.09;;;12.15;100.00
62791;BME280;48830;53.426;10.300;2023-05-24T07:15:16;102023.19;;;12.17;100.00
62791;BME280;48830;53.426;10.300;2023-05-24T07:17:42;102025.91;;;12.23;100.00
62791;BME280;48830;53.426;10.300;2023-05-24T07:20:08;102031.28;;;12.30;100.00
62791;BME280;48830;53.426;10.300;2023-05-24T07:22:35;102019.22;;;12.29;100.00
62791;BME280;48830;53.426;10.300;2023-05-24T07:25:00;102023.69;;;12.35;100.00
62791;BME280;48830;53.426;10.300;2023-05-24T07:27:26;102028.66;;;12.29;100.00
62791;BME280;48830;53.426;10.300;2023-05-24T07:29:51;102028.84;;;12.35;100.00
62791;BME280;48830;53.426;10.300;2023-05-24T07:32:17;102030.84;;;12.45;100.00
62791;BME280;48830;53.426;10.300;2023-05-24T07:34:42;102025.81;;;12.50;100.00
62791;BME280;48830;53.426;10.300;2023-05-24T07:37:08;102025.22;;;12.60;100.00
62791;BME280;48830;53.426;10.300;2023-05-24T07:39:33;102028.00;;;12.68;100.00
62791;BME280;48830;53.426;10.300;2023-05-24T07:41:58;102026.50;;;12.76;100.00
62791;BME280;48830;53.426;10.300;2023-05-24T07:44:24;102032.75;;;12.85;100.00
62791;BME280;48830;53.426;10.300;2023-05-24T07:46:50;102027.22;;;13.03;100.00
62791;BME280;48830;53.426;10.300;2023-05-24T07:49:15;102028.22;;;13.10;100.00
62791;BME280;48830;53.426;10.300;2023-05-24T07:51:41;102029.94;;;13.44;100.00
62791;BME280;48830;53.426;10.300;2023-05-24T07:54:06;102035.22;;;13.14;100.00
62791;BME280;48830;53.426;10.300;2023-05-24T07:56:32;102041.47;;;13.58;100.00
62791;BME280;48830;53.426;10.300;2023-05-24T07:58:58;102039.59;;;13.89;100.00
62791;BME280;48830;53.426;10.300;2023-05-24T08:01:32;102027.97;;;14.11;100.00
62791;BME280;48830;53.426;10.300;2023-05-24T08:04:02;102033.16;;;14.11;100.00
62791;BME280;48830;53.426;10.300;2023-05-24T08:06:29;102037.34;;;14.06;100.00
62791;BME280;48830;53.426;10.300;2023-05-24T08:08:55;102037.47;;;14.12;100.00
62791;BME280;48830;53.426;10.300;2023-05-24T08:11:21;102039.19;;;14.11;100.00
62791;BME280;48830;53.426;10.300;2023-05-24T08:13:46;102037.88;;;13.89;100.00
62791;BME280;48830;53.426;10.300;2023-05-24T08:16:12;102037.66;;;13.80;100.00
62791;BME280;48830;53.426;10.300;2023-05-24T08:18:37;102045.34;;;13.77;100.00
62791;BME280;48830;53.426;10.300;2023-05-24T08:21:03;102048.84;;;13.79;100.00
62791;BME280;48830;53.426;10.300;2023-05-24T08:23:28;102042.06;;;13.84;100.00
62791;BME280;48830;53.426;10.300;2023-05-24T08:25:56;102045.41;;;13.80;100.00
62791;BME280;48830;53.426;10.300;2023-05-24T08:28:21;102048.75;;;13.76;100.00
62791;BME280;48830;53.426;10.300;2023-05-24T08:30:47;102060.78;;;13.74;100.00
62791;BME280;48830;53.426;10.300;2023-05-24T08:33:12;102054.63;;;13.69;100.00
62791;BME280;48830;53.426;10.300;2023-05-24T08:35:38;102059.81;;;13.69;100.00
62791;BME280;48830;53.426;10.300;2023-05-24T08:38:03;102066.69;;;13.69;100.00
62791;BME280;48830;53.426;10.300;2023-05-24T08:40:29;102066.84;;;13.76;100.00
62791;BME280;48830;53.426;10.300;2023-05-24T08:42:59;102065.22;;;13.80;100.00
62791;BME280;48830;53.426;10.300;2023-05-24T08:45:25;102062.75;;;13.84;100.00
62791;BME280;48830;53.426;10.300;2023-05-24T08:47:50;102063.91;;;13.99;100.00
62791;BME280;48830;53.426;10.300;2023-05-24T08:50:16;102071.75;;;14.03;100.00
62791;BME280;48830;53.426;10.300;2023-05-24T08:52:42;102074.41;;;14.05;100.00
62791;BME280;48830;53.426;10.300;2023-05-24T08:55:10;102069.41;;;14.14;100.00
62791;BME280;48830;53.426;10.300;2023-05-24T08:57:36;102070.47;;;14.24;100.00
62791;BME280;48830;53.426;10.300;2023-05-24T09:00:08;102073.25;;;14.33;100.00
62791;BME280;48830;53.426;10.300;2023-05-24T09:02:37;102078.34;;;14.28;100.00
62791;BME280;48830;53.426;10.300;2023-05-24T09:05:04;102084.56;;;14.38;100.00
62791;BME280;48830;53.426;10.300;2023-05-24T09:07:33;102086.41;;;14.43;100.00
62791;BME280;48830;53.426;10.300;2023-05-24T09:10:00;102090.75;;;14.44;100.00
62791;BME280;48830;53.426;10.300;2023-05-24T09:12:30;102096.63;;;14.37;100.00
62791;BME280;48830;53.426;10.300;2023-05-24T09:14:57;102093.19;;;14.38;99.17
62791;BME280;48830;53.426;10.300;2023-05-24T09:17:23;102090.75;;;14.44;98.44
62791;BME280;48830;53.426;10.300;2023-05-24T09:19:50;102087.31;;;14.45;99.33
62791;BME280;48830;53.426;10.300;2023-05-24T09:22:16;102097.84;;;14.53;100.00
62791;BME280;48830;53.426;10.300;2023-05-24T09:24:51;102098.97;;;14.66;98.52
62791;BME280;48830;53.426;10.300;2023-05-24T09:27:17;102106.84;;;14.72;97.56
62791;BME280;48830;53.426;10.300;2023-05-24T09:29:45;102108.66;;;14.78;97.91
62791;BME280;48830;53.426;10.300;2023-05-24T09:32:13;102101.78;;;14.78;94.74
62791;BME280;48830;53.426;10.300;2023-05-24T09:34:40;102103.66;;;14.85;96.69
62791;BME280;48830;53.426;10.300;2023-05-24T09:37:17;102102.13;;;14.96;96.21
62791;BME280;48830;53.426;10.300;2023-05-24T09:39:44;102099.59;;;15.00;93.02
62791;BME280;48830;53.426;10.300;2023-05-24T09:42:30;102102.25;;;15.04;92.06
62791;BME280;48830;53.426;10.300;2023-05-24T09:44:59;102103.09;;;15.02;92.94
62791;BME280;48830;53.426;10.300;2023-05-24T09:47:29;102102.34;;;15.07;93.52
62791;BME280;48830;53.426;10.300;2023-05-24T09:49:55;102111.94;;;15.13;91.17
62791;BME280;48830;53.426;10.300;2023-05-24T09:52:21;102109.44;;;15.19;91.73
62791;BME280;48830;53.426;10.300;2023-05-24T09:54:46;102117.34;;;15.28;93.75
62791;BME280;48830;53.426;10.300;2023-05-24T09:57:15;102118.44;;;15.39;95.93
62791;BME280;48830;53.426;10.300;2023-05-24T09:59:41;102109.97;;;15.51;94.13
62791;BME280;48830;53.426;10.300;2023-05-24T10:02:09;102119.78;;;15.69;93.31
62791;BME280;48830;53.426;10.300;2023-05-24T10:04:35;102112.94;;;15.72;91.31
62791;BME280;48830;53.426;10.300;2023-05-24T10:07:01;102115.53;;;15.72;91.91
62791;BME280;48830;53.426;10.300;2023-05-24T10:09:30;102123.97;;;15.62;89.72
62791;BME280;48830;53.426;10.300;2023-05-24T10:12:06;102121.31;;;15.58;91.10
62791;BME280;48830;53.426;10.300;2023-05-24T10:14:34;102116.88;;;15.51;92.89
62791;BME280;48830;53.426;10.300;2023-05-24T10:17:05;102117.72;;;15.49;91.82
62791;BME280;48830;53.426;10.300;2023-05-24T10:19:34;102122.16;;;15.55;92.35
62791;BME280;48830;53.426;10.300;2023-05-24T10:22:05;102117.19;;;15.69;90.83
62791;BME280;48830;53.426;10.300;2023-05-24T10:24:46;102127.00;;;15.88;90.44
62791;BME280;48830;53.426;10.300;2023-05-24T10:27:14;102126.31;;;16.00;88.32
62791;BME280;48830;53.426;10.300;2023-05-24T10:29:57;102128.19;;;16.12;89.49
62791;BME280;48830;53.426;10.300;2023-05-24T10:32:25;102134.56;;;16.35;87.20
62791;BME280;48830;53.426;10.300;2023-05-24T10:34:57;102135.53;;;16.42;84.71
62791;BME280;48830;53.426;10.300;2023-05-24T10:37:24;102132.16;;;16.49;85.54
62791;BME280;48830;53.426;10.300;2023-05-24T10:39:51;102120.97;;;16.53;85.19
62791;BME280;48830;53.426;10.300;2023-05-24T10:42:16;102129.75;;;16.66;83.93
62791;BME280;48830;53.426;10.300;2023-05-24T10:44:43;102124.56;;;16.64;83.36
62791;BME280;48830;53.426;10.300;2023-05-24T10:47:13;102129.28;;;16.26;82.80
62791;BME280;48830;53.426;10.300;2023-05-24T10:49:49;102130.84;;;16.82;82.10
62791;BME280;48830;53.426;10.300;2023-05-24T10:52:16;102134.00;;;16.59;82.81
62791;BME280;48830;53.426;10.300;2023-05-24T10:55:05;102136.16;;;16.92;81.94
62791;BME280;48830;53.426;10.300;2023-05-24T10:57:33;102130.16;;;16.99;81.32
62791;BME280;48830;53.426;10.300;2023-05-24T11:05:23;102132.09;;;17.19;80.20
62791;BME280;48830;53.426;10.300;2023-05-24T11:07:49;102132.59;;;16.84;81.08
62791;BME280;48830;53.426;10.300;2023-05-24T11:10:29;102130.09;;;16.90;81.43
62791;BME280;48830;53.426;10.300;2023-05-24T11:13:00;102130.09;;;16.92;81.13
62791;BME280;48830;53.426;10.300;2023-05-24T11:15:28;102128.31;;;16.86;82.03
62791;BME280;48830;53.426;10.300;2023-05-24T11:20:41;102121.03;;;16.58;83.83
62791;BME280;48830;53.426;10.300;2023-05-24T11:23:08;102119.59;;;16.84;82.69
62791;BME280;48830;53.426;10.300;2023-05-24T11:25:37;102123.91;;;17.75;80.01
62791;BME280;48830;53.426;10.300;2023-05-24T11:28:06;102116.41;;;18.22;77.55
62791;BME280;48830;53.426;10.300;2023-05-24T11:30:37;102120.13;;;18.87;74.52
62791;BME280;48830;53.426;10.300;2023-05-24T11:33:03;102121.03;;;19.01;71.00
62791;BME280;48830;53.426;10.300;2023-05-24T11:35:28;102120.19;;;19.13;70.63
62791;BME280;48830;53.426;10.300;2023-05-24T11:37:55;102124.50;;;19.03;69.65
62791;BME280;48830;53.426;10.300;2023-05-24T11:40:22;102121.06;;;19.20;69.52
62791;BME280;48830;53.426;10.300;2023-05-24T11:42:49;102120.19;;;19.11;69.85
62791;BME280;48830;53.426;10.300;2023-05-24T11:45:16;102119.28;;;18.91;70.07
62791;BME280;48830;53.426;10.300;2023-05-24T11:47:42;102126.22;;;18.92;70.66
62791;BME280;48830;53.426;10.300;2023-05-24T11:50:08;102127.84;;;18.59;70.83
62791;BME280;48830;53.426;10.300;2023-05-24T11:52:39;102124.44;;;18.71;70.61
62791;BME280;48830;53.426;10.300;2023-05-24T11:55:05;102128.66;;;18.42;70.62
62791;BME280;48830;53.426;10.300;2023-05-24T11:57:36;102130.47;;;18.66;72.33
62791;BME280;48830;53.426;10.300;2023-05-24T12:00:05;102135.69;;;18.62;70.58
62791;BME280;48830;53.426;10.300;2023-05-24T12:02:35;102140.78;;;18.43;70.18
62791;BME280;48830;53.426;10.300;2023-05-24T12:05:07;102136.34;;;18.22;69.33
62791;BME280;48830;53.426;10.300;2023-05-24T12:07:35;102147.66;;;18.28;71.59
62791;BME280;48830;53.426;10.300;2023-05-24T12:10:03;102146.91;;;18.46;71.82
62791;BME280;48830;53.426;10.300;2023-05-24T12:12:29;102146.03;;;18.47;74.98
62791;BME280;48830;53.426;10.300;2023-05-24T12:14:54;102139.13;;;18.61;72.63
62791;BME280;48830;53.426;10.300;2023-05-24T12:17:21;102141.72;;;18.58;74.34
62791;BME280;48830;53.426;10.300;2023-05-24T12:19:49;102137.50;;;18.79;73.08
62791;BME280;48830;53.426;10.300;2023-05-24T12:22:15;102141.81;;;18.71;71.01
62791;BME280;48830;53.426;10.300;2023-05-24T12:24:40;102146.19;;;18.81;71.70
62791;BME280;48830;53.426;10.300;2023-05-24T12:27:06;102143.59;;;18.93;70.08
62791;BME280;48830;53.426;10.300;2023-05-24T12:29:38;102145.34;;;18.94;69.75
62791;BME280;48830;53.426;10.300;2023-05-24T12:32:04;102154.88;;;18.94;70.00
62791;BME280;48830;53.426;10.300;2023-05-24T12:34:36;102147.94;;;18.91;70.29
62791;BME280;48830;53.426;10.300;2023-05-24T12:37:01;102151.38;;;18.81;73.35
62791;BME280;48830;53.426;10.300;2023-05-24T12:39:28;102157.44;;;18.71;71.22
62791;BME280;48830;53.426;10.300;2023-05-24T12:41:59;102148.69;;;18.66;71.43
62791;BME280;48830;53.426;10.300;2023-05-24T12:44:32;102152.13;;;18.61;72.32
62791;BME280;48830;53.426;10.300;2023-05-24T12:46:59;102148.69;;;18.59;71.17
62791;BME280;48830;53.426;10.300;2023-05-24T12:49:25;102154.75;;;18.60;73.99
62791;BME280;48830;53.426;10.300;2023-05-24T12:51:52;102158.19;;;18.48;73.04
62791;BME280;48830;53.426;10.300;2023-05-24T12:54:20;102164.28;;;18.56;72.47